Aérodrome :
LOGIN :

S'inscrire | Disclaimer

   EN    FR    IT 

 










Légende :    VFR   VFR Marginal   IFR   IFR Intensif   IFR Très Intensif
Visi : 
Plafond : 
>= 8 km
>= 3000ft
5 à 8 km
1000 à 3000 ft
1500m à 5 km
500 à 1000 ft
800 à 1500m
200 à 500 ft
< 800m
< 200 ft
Symboles :   Orages  Brouillard  Fortes neiges  Fortes précipitations  Vent > 20 kt
SIGMETs :   Divers  Orages  Givrage  Turbulence  Onde Orograph.  Cendres Volcan.







- Altitude de l'aérodrome : 7 ft
- Code IATA : VCE


LIPZ - Marco Polo Int. Venezia

DERNIER METAR :
  • 181750Z 07018KT 9999 SCT040 SCT050 05/02 Q1016 NOSIG

METARs EXPIRÉS :
  • 181720Z 08016KT 9999 -RA SCT041 BKN053 05/03 Q1016 NOSIG
  • 181650Z 07012KT 9999 BKN050 06/02 Q1015 NOSIG
  • 181620Z 05010KT 9999 BKN050 06/02 Q1015 NOSIG
  • 181550Z 07012KT 9999 BKN049 06/02 Q1015 NOSIG
  • 181520Z 08018KT 9999 SCT044 BKN052 07/02 Q1014 NOSIG

TAF TAF LIPZ
Valide du 18 à 18h jusqu'au 20 à 00h UTC


181700Z 1818/1924 05014KT 9999 SCT020 BKN040
TEMPO 1818/1824 RA
Pas de NOTAMs connus pour ce terrain.



MET'MAP, la Météo Aéronautique d'un coup d'oeil ! - Copyright ORBIFLY Décembre 2007 - Disclaimer

ORBIFLY MET'MAP TEAM :

Programmation & Développement : Alexandra Zaïnal
Conception & Développement : Baudouin d'Aumeries
Co-Programmation & Développement : Marc-Olivier Méhu
Soutien technique & logistique : Manuel Goepfert

Contact : metmap@orbifly.com




SOURCES & CREDITS :

   NOAA